TRD weather

Trondheim Airport Værnes
Trondheim, Nord-Trøndelag, Norway

Public forecast

Using degrees Celsius for public forecast. Weather courtesy of forecast.io.

METAR (pilot weather report)

Retrieved 2019/05/23 08:20 UTC (14 minutes ago):

ENVA 230820Z 07006KT 020V120 9999 -DZ SCT080 16/13 Q1005 NOSIG RMK WIND 670FT 11010KT

TAF (pilot weather forecast)

Retrieved 2019/05/23 06:57 UTC (2 hours ago):

TAF ENVA 230500Z 2306/2406 10008KT 9999 -RA FEW030 BKN050 TEMPO 2306/2308 SHRA BKN012 SCT020CB BECMG 2310/2312 27010KT BECMG 2318/2320 10005KT